Flight Track Log - Related Links

Times and Time Zones

All times are in EDT time to prevent confusion due to time zone crossing. See the SWA558 flight status page for this flight to view local times or setup timezone preferences in your user account.

Time Position Orientation Groundspeed Altitude Reporting Facility
EDT Latitude Longitude Course Direction KTS MPH feet Rate Location/Type
Wed 03:59:34 PM 41.7844 -87.6869 207° Southwest 183 211 3,400  Level Chicago Center
Wed 04:00:35 PM 41.7258 -87.6939 185° South 241 277 5,000 2,098 Climbing Chicago Center
Wed 04:01:37 PM 41.6744 -87.7506 219° Southwest 242 278 7,700 3,220 Climbing Chicago Center
Wed 04:02:38 PM 41.6300 -87.8175 228° Southwest 242 278 11,600 2,780 Climbing Chicago Center
Wed 04:03:40 PM 41.5822 -87.8939 230° Southwest 267 307 13,400 2,537 Climbing Chicago Center
Wed 04:04:00 PM 41.3638 -88.1797 207° Southwest  Level FlightAware Approximate
Wed 04:04:41 PM 41.5122 -88.0047 230° Southwest 324 373 16,800  Level Chicago Center
Wed 04:05:43 PM 41.4597 -88.0872 230° Southwest 335 386 19,500 2,341 Climbing Chicago Center
Wed 04:06:44 PM 41.3897 -88.1856 227° Southwest 346 398 21,600 1,902 Climbing Chicago Center
Wed 04:07:46 PM 41.2947 -88.2297 199° South 370 426 23,400 1,805 Climbing Chicago Center
Wed 04:08:47 PM 41.1722 -88.2858 199° South 390 449 25,300 1,561 Climbing Chicago Center
Wed 04:09:49 PM 41.0642 -88.3347 199° South 407 468 26,600 1,268 Climbing Chicago Center
Wed 04:10:50 PM 40.9497 -88.3869 199° South 428 493 27,900 1,268 Climbing Chicago Center
Wed 04:11:52 PM 40.8333 -88.4389 199° South 441 507 29,200 1,659 Climbing Chicago Center
Wed 04:12:53 PM 40.7156 -88.4908 198° South 447 514 31,300 1,805 Climbing Chicago Center
Wed 04:13:55 PM 40.5992 -88.5406 198° South 442 509 32,900 1,512 Climbing Chicago Center
Wed 04:14:56 PM 40.4850 -88.5911 199° South 436 502 34,400 1,415 Climbing Chicago Center
Wed 04:15:58 PM 40.3653 -88.6436 198° South 436 502 35,800 1,220 Climbing Chicago Center
Wed 04:16:59 PM 40.2672 -88.7286 213° Southwest 423 487 36,900 1,073 Climbing Chicago Center
Wed 04:18:01 PM 40.1656 -88.8614 225° Southwest 426 490 38,000 555 Climbing Chicago Center
Wed 04:18:58 PM 40.0964 -88.9464 223° Southwest 423 487 38,000  Level Kansas City Center
Wed 04:19:58 PM 40.0119 -89.0536 224° Southwest 423 487 38,000  Level Kansas City Center
Wed 04:21:03 PM 39.9272 -89.1608 224° Southwest 423 487 38,000  Level Kansas City Center
Wed 04:22:03 PM 39.8417 -89.2706 225° Southwest 427 491 38,000  Level Kansas City Center
Wed 04:23:05 PM 39.7378 -89.3997 224° Southwest 429 494 38,000  Level Kansas City Center
Wed 04:24:08 PM 39.6575 -89.4994 224° Southwest 429 494 38,000  Level Kansas City Center
Wed 04:25:09 PM 39.5714 -89.6067 224° Southwest 430 495 38,000  Level Kansas City Center
Wed 04:26:10 PM 39.4839 -89.7147 224° Southwest 433 498 38,000  Level Kansas City Center
Wed 04:27:14 PM 39.3797 -89.8450 224° Southwest 435 501 38,000  Level Kansas City Center
Wed 04:28:14 PM 39.2928 -89.9525 224° Southwest 435 501 38,000  Level Kansas City Center
Wed 04:29:16 PM 39.2067 -90.0597 224° Southwest 432 497 38,000  Level Kansas City Center
Wed 04:30:20 PM 39.1200 -90.1650 223° Southwest 430 495 38,000  Level Kansas City Center
Wed 04:31:21 PM 39.0342 -90.2711 224° Southwest 431 496 38,000  Level Kansas City Center
Wed 04:32:23 PM 38.9314 -90.3969 224° Southwest 430 495 38,000  Level Kansas City Center
Wed 04:33:27 PM 38.8539 -90.4922 224° Southwest 427 491 38,000  Level Kansas City Center
Wed 04:34:27 PM 38.7581 -90.5894 218° Southwest 438 504 38,000  Level Kansas City Center
Wed 04:35:28 PM 38.6681 -90.7022 224° Southwest 457 526 38,000  Level Kansas City Center
Wed 04:36:32 PM 38.5611 -90.8267 222° Southwest 449 517 38,000  Level Kansas City Center
Wed 04:37:33 PM 38.4733 -90.9269 222° Southwest 437 503 38,000  Level Kansas City Center
Wed 04:38:35 PM 38.3831 -91.0294 222° Southwest 436 502 38,000  Level Kansas City Center
Wed 04:39:38 PM 38.2950 -91.1308 222° Southwest 432 497 38,000  Level Kansas City Center
Wed 04:40:40 PM 38.2086 -91.2317 223° Southwest 428 493 38,000  Level Kansas City Center
Wed 04:41:41 PM 38.1058 -91.3453 221° Southwest 409 471 38,000  Level Kansas City Center
Wed 04:42:42 PM 38.0203 -91.4428 222° Southwest 408 470 38,000  Level Kansas City Center
Wed 04:43:46 PM 37.9311 -91.5417 221° Southwest 416 479 38,000  Level Kansas City Center
Wed 04:44:47 PM 37.8428 -91.6397 221° Southwest 419 482 38,000  Level Kansas City Center
Wed 04:45:48 PM 37.7561 -91.7375 222° Southwest 417 480 38,000  Level Kansas City Center
Wed 04:46:53 PM 37.6708 -91.8344 222° Southwest 411 473 38,000  Level Kansas City Center
Wed 04:47:54 PM 37.5825 -91.9308 221° Southwest 414 476 38,000  Level Kansas City Center
Wed 04:48:54 PM 37.4961 -92.0294 222° Southwest 415 478 38,000  Level Kansas City Center
Wed 04:49:58 PM 37.4089 -92.1244 221° Southwest 413 475 38,000  Level Kansas City Center
Wed 04:50:59 PM 37.3058 -92.2381 221° Southwest 409 471 38,000  Level Kansas City Center
Wed 04:52:02 PM 37.2178 -92.3342 221° Southwest 412 474 38,000  Level Kansas City Center
Wed 04:53:04 PM 37.1283 -92.4333 221° Southwest 421 484 38,000  Level Kansas City Center
Wed 04:54:07 PM 37.0400 -92.5303 221° Southwest 421 484 38,000  Level Kansas City Center
Wed 04:55:08 PM 36.9514 -92.6256 221° Southwest 420 483 38,000  Level Kansas City Center
Wed 04:56:09 PM 36.8639 -92.7206 221° Southwest 417 480 38,000  Level Kansas City Center
Wed 04:56:41 PM 36.8128 -92.7772 222° Southwest 420 483 38,000  Level Memphis Center
Wed 04:57:41 PM 36.7275 -92.8706 221° Southwest 420 483 38,000  Level Memphis Center
Wed 04:58:41 PM 36.6422 -92.9636 221° Southwest 420 483 38,000  Level Memphis Center
Wed 04:59:41 PM 36.5528 -93.0536 219° Southwest 420 483 38,000  Level Memphis Center
Wed 05:00:41 PM 36.4672 -93.1464 221° Southwest 420 483 38,000  Level Memphis Center
Wed 05:01:41 PM 36.3797 -93.2389 220° Southwest 415 478 38,000  Level Memphis Center
Wed 05:02:41 PM 36.2942 -93.3283 220° Southwest 410 472 38,000  Level Memphis Center
Wed 05:03:41 PM 36.2067 -93.4206 220° Southwest 410 472 38,000  Level Memphis Center
Wed 05:04:41 PM 36.1189 -93.5122 220° Southwest 410 472 38,000  Level Memphis Center
Wed 05:05:41 PM 36.0353 -93.6014 221° Southwest 410 472 38,000  Level Memphis Center
Wed 05:06:41 PM 35.9517 -93.6878 220° Southwest 410 472 38,000  Level Memphis Center
Wed 05:07:41 PM 35.8656 -93.7792 221° Southwest 410 472 38,000  Level Memphis Center
Wed 05:08:41 PM 35.7819 -93.8653 220° Southwest 410 472 38,000  Level Memphis Center
Wed 05:09:41 PM 35.6961 -93.9536 220° Southwest 410 472 38,000  Level Memphis Center
Wed 05:10:41 PM 35.6100 -94.0419 220° Southwest 410 472 38,000  Level Memphis Center
Wed 05:11:41 PM 35.5197 -94.1372 221° Southwest 405 466 38,000  Level Memphis Center
Wed 05:12:41 PM 35.4356 -94.2253 220° Southwest 405 466 38,000  Level Memphis Center
Wed 05:13:41 PM 35.3414 -94.3022 214° Southwest 410 472 38,000  Level Memphis Center
Wed 05:14:41 PM 35.2472 -94.3767 213° Southwest 410 472 38,000  Level Memphis Center
Wed 05:15:41 PM 35.1531 -94.4483 212° Southwest 410 472 38,000  Level Memphis Center
Wed 05:16:41 PM 35.0589 -94.5225 213° Southwest 405 466 38,000  Level Memphis Center
Wed 05:18:27 PM 34.8900 -94.6544 213° Southwest 380 437 38,000  Level Fort Worth Center
Wed 05:19:27 PM 34.7914 -94.7283 212° Southwest 418 481 38,000  Level Fort Worth Center
Wed 05:20:27 PM 34.6928 -94.8047 213° Southwest 448 516 38,000  Level Fort Worth Center
Wed 05:21:27 PM 34.5964 -94.8783 212° Southwest 421 484 38,000  Level Fort Worth Center
Wed 05:22:27 PM 34.4978 -94.9517 212° Southwest 421 484 38,000  Level Fort Worth Center
Wed 05:23:27 PM 34.4050 -95.0172 210° Southwest 416 479 38,000  Level Fort Worth Center
Wed 05:24:27 PM 34.3064 -95.0956 213° Southwest 416 479 38,000  Level Fort Worth Center
Wed 05:25:27 PM 34.2117 -95.1633 211° Southwest 416 479 38,000  Level Fort Worth Center
Wed 05:26:28 PM 34.1169 -95.2336 212° Southwest 416 479 38,000  Level Fort Worth Center
Wed 05:27:27 PM 34.0222 -95.3061 212° Southwest 411 473 38,000  Level Fort Worth Center
Wed 05:28:27 PM 33.9253 -95.3758 211° Southwest 411 473 38,000  Level Fort Worth Center
Wed 05:29:28 PM 33.8303 -95.4456 211° Southwest 403 464 38,000  Level Fort Worth Center
Wed 05:30:27 PM 33.7353 -95.5128 210° Southwest 408 470 38,000  Level Fort Worth Center
Wed 05:31:27 PM 33.6425 -95.5822 212° Southwest 408 470 38,000  Level Fort Worth Center
Wed 05:32:27 PM 33.5619 -95.6411 211° Southwest 394 453 38,000  Level Fort Worth Center
Wed 05:33:27 PM 33.4711 -95.7078 211° Southwest 389 448 38,000  Level Fort Worth Center
Wed 05:34:27 PM 33.3781 -95.7742 211° Southwest 389 448 38,000  Level Fort Worth Center
Wed 05:35:27 PM 33.2850 -95.8381 210° Southwest 389 448 38,000  Level Fort Worth Center
Wed 05:36:27 PM 33.1939 -95.9067 212° Southwest 389 448 38,000  Level Fort Worth Center
Wed 05:37:27 PM 33.0925 -95.9803 211° Southwest 389 448 38,000  Level Fort Worth Center
Wed 05:38:27 PM 32.9992 -96.0461 211° Southwest 389 448 38,000  Level Fort Worth Center
Wed 05:39:27 PM 32.9039 -96.1144 211° Southwest 396 456 38,000  Level Fort Worth Center
Wed 05:40:28 PM 32.8106 -96.1825 212° Southwest 401 461 38,000  Level Fort Worth Center
Wed 05:41:28 PM 32.7175 -96.2481 211° Southwest 396 456 38,000  Level Fort Worth Center
Wed 05:42:27 PM 32.6239 -96.3133 210° Southwest 396 456 38,000  Level Fort Worth Center
Wed 05:43:27 PM 32.5306 -96.3808 211° Southwest 396 456 38,000  Level Fort Worth Center
Wed 05:44:28 PM 32.4433 -96.4436 211° Southwest 401 461 38,000  Level Fort Worth Center
Wed 05:45:27 PM 32.3500 -96.5108 211° Southwest 400 460 38,000 -151 Level Fort Worth Center
Wed 05:46:27 PM 32.2544 -96.5781 211° Southwest 400 460 37,700 -595 Descending Fort Worth Center
Wed 05:47:28 PM 32.1589 -96.6428 210° Southwest 400 460 36,800 -950 Descending Fort Worth Center
Wed 05:48:27 PM 32.0611 -96.7122 211° Southwest 405 466 35,800 -1,008 Descending Fort Worth Center
Wed 05:49:27 PM 31.9550 -96.7867 211° Southwest 412 474 34,800 -1,150 Descending Fort Worth Center
Wed 05:50:27 PM 31.8675 -96.8508 212° Southwest 412 474 33,500 -1,650 Descending Fort Worth Center
Wed 05:51:27 PM 31.7739 -96.9150 210° Southwest 406 467 31,500 -2,000 Descending Fort Worth Center
Wed 05:52:27 PM 31.6864 -96.9789 212° Southwest 393 452 29,500 -1,950 Descending Fort Worth Center
Wed 05:53:27 PM 31.5989 -97.0378 210° Southwest 373 429 27,600 -1,870 Descending Fort Worth Center
Wed 05:53:44 PM 31.5706 -97.0558 209° Southwest 354 407 27,100 -1,747 Descending Houston Center
Wed 05:54:46 PM 31.4842 -97.1011 204° Southwest 342 394 25,300 -1,742 Descending Houston Center
Wed 05:55:48 PM 31.3961 -97.1361 199° South 333 383 23,500 -1,694 Descending Houston Center
Wed 05:56:50 PM 31.3083 -97.1700 198° South 329 379 21,800 -1,645 Descending Houston Center
Wed 05:57:52 PM 31.2225 -97.2036 199° South 324 373 20,100 -1,210 Descending Houston Center
Wed 05:58:54 PM 31.1397 -97.2358 198° South 313 360 19,300 -1,248 Descending Houston Center
Wed 05:59:57 PM 31.0478 -97.2722 199° South 300 345 17,500 -1,584 Descending Houston Center
Wed 06:00:59 PM 30.9725 -97.3028 199° South 292 336 16,000 -1,403 Descending Houston Center
Wed 06:02:01 PM 30.8961 -97.3308 197° South 295 339 14,600 -1,548 Descending Houston Center
Wed 06:03:03 PM 30.8075 -97.3644 198° South 287 330 12,800 -1,548 Descending Houston Center
Wed 06:04:05 PM 30.7314 -97.3944 199° South 286 329 11,400 -1,403 Descending Houston Center
Wed 06:05:07 PM 30.6697 -97.4436 214° Southwest 271 312 9,900 -1,645 Descending Houston Center
Wed 06:07:11 PM 30.5583 -97.5478 219° Southwest 251 289 6,300 -1,742 Descending Houston Center
Wed 06:08:13 PM 30.5064 -97.5989 220° Southwest 245 282 4,500 -1,344 Descending Houston Center
Wed 06:09:16 PM 30.4500 -97.6417 213° Southwest 241 277 3,500 -816 Descending Houston Center
Wed 06:10:18 PM 30.3869 -97.6639 197° South 208 239 2,800 -484 Descending Houston Center
Wed 06:11:20 PM 30.3311 -97.6617 178° South 204 235 2,500 -290 Descending Houston Center

Login

Don't have an account? Register now (free) for customized features, flight alerts, and more!